Página principal
METAR-TAF:

METAR-TAF

Aeroportos :

Aeroporto Internacional de Port Moresby

Port Moresby, Papua-Nova Guiné

latitude: 09-26S, longitude: 147-13E, altura: 38 m

Observação actual do tempo

O boletim foi feito há 25 minutos, às 00:00 UTC
Vento 9 kt de su-sudeste
Temperatura 30°C
Humidade 70%
Pressão 1010 hPa
Visibilidade 10 km ou mais
Poucas nuvensa uma altura de 2000 ft
Nuvens dispersasa uma altura de 4000 ft

METAR: AYPY 260000Z 16009KT 9999 FEW020 SCT040 30/24 Q1010

Hora: 10:25 (00:25 UTC)

Previsão

O boletim foi feito há 1 hora e 36 minutos, às 22:49 UTC
Previsão válida de 26 às 00 UTC a 26 às 24 UTC
Vento 6 kt de su-sudeste
Visibilidade 10 km ou mais
Nuvens dispersasa uma altura de 1800 ft
A partir de 26 às 0500 UTC
Vento 10 kt de su-sudeste
Visibilidade 10 km ou mais
Nuvens dispersasa uma altura de 2000 ft
Nuvens dispersasa uma altura de 14000 ft

TAF: AYPY 252249Z 2600/2624 16006KT 9999 SCT018 FM260500 16010KT 9999 SCT020 SCT140

Observações e previsões do tempo de mais de 4000 aeroportos (mensagens METAR e TAF).

As estações disponíveis são os pontos amarelos e vermelhos sobre o mapa.

Mova o rato sobre o mapa para ver o nome da estação.

Depois clique no ponto para visualizar as observações e previsões meteorológicas.

Para alterar o mapa : clique nos botões verdes com uma cruz preta para aumentar o zoom; no botão verde com uma pitada de zoom; ou nas setas verdes para mapas adjacentes.


METAR-TAF: